createdAt,value
2018-03-03T00:02:22.060Z,56.97
2018-03-03T00:07:25.310Z,56.73
2018-03-03T00:12:28.511Z,56.27
2018-03-03T00:17:33.025Z,58.70
2018-03-03T00:22:41.996Z,55.67
2018-03-03T00:27:45.856Z,60.37
2018-03-03T00:32:50.112Z,58.00
2018-03-03T00:37:53.224Z,56.03
2018-03-03T00:42:57.115Z,56.30
2018-03-03T00:48:00.278Z,55.30
2018-03-03T00:53:03.538Z,59.27
2018-03-03T00:58:07.400Z,53.97
2018-03-03T01:03:10.948Z,57.97
2018-03-03T01:08:14.048Z,58.15
2018-03-03T01:13:17.142Z,58.07
2018-03-03T01:18:20.248Z,55.37
2018-03-03T01:23:23.367Z,55.23
2018-03-03T01:28:26.477Z,58.57
2018-03-03T01:33:29.574Z,56.70
2018-03-03T01:38:32.681Z,55.00
2018-03-03T01:43:35.780Z,56.70
2018-03-03T01:48:38.880Z,56.80
2018-03-03T01:53:42.761Z,57.30
2018-03-03T01:58:46.633Z,58.60
2018-03-03T02:03:49.740Z,57.00
2018-03-03T02:08:53.994Z,54.87
2018-03-03T02:13:57.085Z,55.47
2018-03-03T02:19:00.575Z,55.00
2018-03-03T02:24:03.675Z,54.50
2018-03-03T02:29:08.122Z,53.60
2018-03-03T02:34:11.981Z,52.93
2018-03-03T02:39:15.083Z,51.90
2018-03-03T02:44:18.180Z,54.70
2018-03-03T02:49:21.309Z,52.13
2018-03-03T02:54:24.814Z,49.77
2018-03-03T02:59:27.925Z,51.93
2018-03-03T03:04:31.014Z,50.50
2018-03-03T03:09:34.125Z,47.97
2018-03-03T03:14:37.220Z,51.80
2018-03-03T03:19:41.090Z,51.67
2018-03-03T03:24:44.196Z,52.80
2018-03-03T03:29:48.440Z,53.43
2018-03-03T03:34:51.546Z,53.50
2018-03-03T03:39:55.450Z,51.27
2018-03-03T03:44:58.536Z,51.33
2018-03-03T03:50:01.652Z,51.60
2018-03-03T03:55:05.889Z,51.93
2018-03-03T04:00:08.999Z,52.78
2018-03-03T04:05:12.094Z,51.90
2018-03-03T04:10:15.594Z,55.20
2018-03-03T04:15:19.465Z,51.77
2018-03-03T04:20:23.316Z,51.70
2018-03-03T04:25:26.426Z,53.43
2018-03-03T04:30:29.520Z,50.13
2018-03-03T04:35:34.127Z,49.77
2018-03-03T04:40:37.617Z,53.13
2018-03-03T04:45:41.857Z,49.07
2018-03-03T04:50:45.719Z,48.53
2018-03-03T04:55:49.224Z,48.60
2018-03-03T05:00:56.629Z,48.10
2018-03-03T05:06:03.909Z,49.57
2018-03-03T05:11:07.751Z,48.03
2018-03-03T05:16:16.510Z,49.80
2018-03-03T05:21:21.564Z,51.20
2018-03-03T05:26:31.758Z,49.20
2018-03-03T05:31:41.775Z,50.60
2018-03-03T05:36:51.251Z,50.33
2018-03-03T05:41:59.904Z,52.17
2018-03-03T05:47:06.303Z,48.83
2018-03-03T05:52:15.036Z,48.20
2018-03-03T06:03:08.164Z,48.90
2018-03-03T06:08:12.938Z,48.92
2018-03-03T06:13:16.793Z,49.03
2018-03-03T06:18:20.645Z,47.37
2018-03-03T06:23:24.515Z,49.63
2018-03-03T06:28:28.364Z,50.73
2018-03-03T06:33:32.223Z,50.60
2018-03-03T06:38:35.311Z,51.28
2018-03-03T06:43:39.543Z,51.37
2018-03-03T06:48:43.972Z,50.33
2018-03-03T06:53:47.486Z,48.97
2018-03-03T06:58:51.897Z,50.43
2018-03-03T07:03:54.978Z,51.60
2018-03-03T07:08:58.456Z,51.47
2018-03-03T07:14:02.315Z,49.33
2018-03-03T07:19:05.388Z,50.33
2018-03-03T07:24:09.236Z,49.20
2018-03-03T07:29:12.332Z,50.22
2018-03-03T07:34:16.176Z,49.50
2018-03-03T07:39:19.266Z,48.67
2018-03-03T07:44:22.748Z,49.33
2018-03-03T07:49:25.833Z,49.63
2018-03-03T07:54:29.695Z,46.87
2018-03-03T07:59:33.914Z,50.73
2018-03-03T08:04:37.801Z,51.57
2018-03-03T08:09:41.280Z,53.07
2018-03-03T08:14:44.401Z,49.33
2018-03-03T08:19:47.879Z,49.70
2018-03-03T08:24:52.472Z,51.23
2018-03-03T08:29:56.918Z,50.37
2018-03-03T08:35:00.012Z,51.80
2018-03-03T08:40:03.516Z,50.88
2018-03-03T08:45:06.601Z,49.30
2018-03-03T08:50:10.837Z,49.97
2018-03-03T08:55:14.701Z,52.43
2018-03-03T09:00:17.792Z,49.63
2018-03-03T09:05:20.883Z,51.23
2018-03-03T09:10:25.427Z,49.27
2018-03-03T09:15:29.869Z,48.77
2018-03-03T09:20:34.447Z,50.03
2018-03-03T09:25:37.920Z,47.73
2018-03-03T09:30:42.342Z,48.47
2018-03-03T09:35:46.199Z,47.70
2018-03-03T09:40:49.292Z,49.00
2018-03-03T09:45:53.148Z,48.30
2018-03-03T09:50:56.987Z,49.63
2018-03-03T09:56:01.433Z,46.50
2018-03-03T10:01:05.276Z,48.93
2018-03-03T10:06:09.707Z,48.20
2018-03-03T10:11:13.184Z,49.43
2018-03-03T10:16:17.675Z,44.88
2018-03-03T10:21:21.117Z,43.30
2018-03-03T10:26:24.600Z,45.13
2018-03-03T10:31:28.085Z,44.70
2018-03-03T10:36:31.576Z,46.40
2018-03-03T10:41:35.471Z,43.80
2018-03-03T10:46:38.511Z,42.17
2018-03-03T10:51:42.947Z,42.20
2018-03-03T10:56:47.387Z,41.70
2018-03-03T11:01:51.253Z,43.73
2018-03-03T11:06:55.850Z,44.25
2018-03-03T11:12:00.391Z,42.63
2018-03-03T11:17:03.872Z,43.93
2018-03-03T11:22:08.317Z,43.57
2018-03-03T11:27:12.790Z,41.00
2018-03-03T11:32:17.251Z,43.10
2018-03-03T11:37:20.364Z,42.07
2018-03-03T11:42:23.477Z,40.42
2018-03-03T11:47:26.957Z,43.93
2018-03-03T11:52:30.431Z,39.67
2018-03-03T11:57:33.519Z,40.83
2018-03-03T12:02:36.603Z,42.77
2018-03-03T12:07:40.476Z,42.07
2018-03-03T12:12:44.672Z,39.87
2018-03-03T12:17:47.775Z,44.83
2018-03-03T12:22:52.373Z,42.23
2018-03-03T12:27:55.454Z,41.47
2018-03-03T12:32:59.688Z,45.77
2018-03-03T12:38:04.354Z,44.87
2018-03-03T12:43:08.596Z,43.50
2018-03-03T12:48:13.036Z,41.40
2018-03-03T12:53:16.897Z,41.67
2018-03-03T12:58:20.393Z,41.37
2018-03-03T13:03:24.599Z,38.78
2018-03-03T13:08:27.688Z,40.90
2018-03-03T13:13:31.605Z,41.33
2018-03-03T13:18:35.463Z,42.30
2018-03-03T13:23:39.930Z,41.90
2018-03-03T13:28:44.022Z,42.50
2018-03-03T13:33:48.477Z,41.07
2018-03-03T13:38:51.982Z,39.40
2018-03-03T13:43:56.428Z,38.97
2018-03-03T13:48:59.512Z,40.07
2018-03-03T13:54:03.958Z,37.47
2018-03-03T13:59:07.660Z,39.73
2018-03-03T14:04:10.730Z,38.20
2018-03-03T14:09:14.589Z,38.20
2018-03-03T14:14:17.680Z,35.77
2018-03-03T14:19:22.222Z,36.37
2018-03-03T14:24:25.559Z,35.77
2018-03-03T14:29:29.423Z,35.07
2018-03-03T14:34:33.261Z,37.10
2018-03-03T14:39:37.098Z,35.47
2018-03-03T14:44:41.527Z,37.97
2018-03-03T14:49:45.001Z,38.63
2018-03-03T14:54:48.841Z,39.47
2018-03-03T14:59:53.296Z,37.07
2018-03-03T15:04:56.392Z,36.07
2018-03-03T15:09:59.887Z,35.93
2018-03-03T15:15:03.733Z,38.27
2018-03-03T15:20:06.885Z,35.97
2018-03-03T15:25:10.004Z,37.03
2018-03-03T15:30:14.608Z,34.77
2018-03-03T15:35:18.456Z,30.63
2018-03-03T15:40:23.100Z,33.03
2018-03-03T15:45:27.857Z,35.00
2018-03-03T15:50:32.304Z,38.20
2018-03-03T15:55:36.150Z,38.65
2018-03-03T16:00:40.600Z,38.87
2018-03-03T16:05:45.044Z,38.40
2018-03-03T16:10:49.506Z,36.43
2018-03-03T16:15:54.101Z,37.27
2018-03-03T16:20:58.552Z,36.23
2018-03-03T16:26:02.037Z,39.83
2018-03-03T16:31:05.141Z,37.33
2018-03-03T16:36:08.242Z,38.30
2018-03-03T16:41:11.739Z,38.10
2018-03-03T16:46:16.841Z,39.77
2018-03-03T16:51:20.701Z,38.30
2018-03-03T16:56:25.167Z,41.10
2018-03-03T17:01:29.040Z,42.63
2018-03-03T17:06:33.470Z,41.10
2018-03-03T17:11:36.977Z,41.10
2018-03-03T17:16:41.188Z,41.97
2018-03-03T17:21:44.291Z,41.90
2018-03-03T17:26:48.751Z,42.90
2018-03-03T17:31:53.339Z,41.47
2018-03-03T17:36:57.763Z,41.30
2018-03-03T17:42:02.356Z,40.22
2018-03-03T17:47:06.587Z,43.73
2018-03-03T17:52:09.689Z,44.13
2018-03-03T17:57:13.550Z,42.00
2018-03-03T18:02:18.497Z,45.20
2018-03-03T18:07:22.919Z,45.70
2018-03-03T18:12:27.525Z,46.63
2018-03-03T18:17:31.022Z,45.23
2018-03-03T18:22:34.104Z,45.63
2018-03-03T18:27:38.611Z,41.85
2018-03-03T18:32:42.472Z,44.93
2018-03-03T18:37:46.152Z,46.40
2018-03-03T18:42:50.735Z,45.78
2018-03-03T18:47:55.578Z,45.47
2018-03-03T18:52:58.664Z,45.07
2018-03-03T18:58:02.880Z,47.27
2018-03-03T19:03:05.960Z,47.13
2018-03-03T19:08:09.053Z,46.10
2018-03-03T19:13:13.632Z,45.30
2018-03-03T19:18:16.748Z,45.60
2018-03-03T19:23:21.201Z,45.60
2018-03-03T19:28:25.068Z,46.53
2018-03-03T19:33:29.594Z,47.30
2018-03-03T19:38:32.710Z,48.17
2018-03-03T19:43:36.788Z,47.60
2018-03-03T19:48:41.458Z,46.20
2018-03-03T19:53:45.430Z,48.47
2018-03-03T19:58:49.394Z,48.63
2018-03-03T20:03:53.306Z,48.80
2018-03-03T20:08:56.890Z,49.47
2018-03-03T20:14:00.106Z,52.00
2018-03-03T20:19:03.236Z,49.93
2018-03-03T20:24:07.672Z,50.33
2018-03-03T20:29:11.029Z,48.17
2018-03-03T20:34:16.167Z,50.57
2018-03-03T20:39:20.160Z,50.35
2018-03-03T20:44:24.753Z,52.73
2018-03-03T20:49:28.602Z,52.43
2018-03-03T20:54:32.495Z,50.77
2018-03-03T20:59:35.979Z,49.17
2018-03-03T21:04:40.053Z,50.70
2018-03-03T21:09:44.421Z,49.03
2018-03-03T21:14:49.089Z,48.35
2018-03-03T21:19:53.940Z,52.33
2018-03-03T21:24:57.944Z,50.42
2018-03-03T21:30:01.849Z,49.78
2018-03-03T21:35:06.103Z,50.33
2018-03-03T21:40:10.765Z,51.03
2018-03-03T21:45:14.998Z,51.20
2018-03-03T21:50:18.259Z,51.33
2018-03-03T21:55:22.709Z,53.20
2018-03-03T22:00:27.329Z,50.70
2018-03-03T22:05:30.408Z,50.07
2018-03-03T22:10:33.510Z,50.00
2018-03-03T22:20:47.536Z,52.73
2018-03-03T22:25:50.617Z,50.63
2018-03-03T22:30:53.716Z,51.57
2018-03-03T22:35:58.368Z,50.13
2018-03-03T22:41:01.474Z,51.57
2018-03-03T22:46:05.706Z,48.73
2018-03-03T22:51:08.810Z,52.43
2018-03-03T22:56:13.239Z,52.93
2018-03-03T23:01:17.845Z,53.33
2018-03-03T23:06:21.693Z,49.70
2018-03-03T23:11:26.300Z,53.50
2018-03-03T23:16:29.800Z,52.65
2018-03-03T23:21:32.903Z,50.80
2018-03-03T23:26:35.991Z,52.00
2018-03-03T23:31:40.432Z,55.17
2018-03-03T23:36:44.124Z,56.00
2018-03-03T23:41:47.214Z,53.03
2018-03-03T23:46:51.187Z,54.43
2018-03-03T23:51:55.090Z,55.77
2018-03-03T23:56:58.242Z,58.17
